Portada
METAR-TAF:

METAR-TAF

Aeropuertos :

Kassel, Alemania

latitud: 51-24N, longitud: 009-23E, altitud: 277 m

Observación

El informe se hizo hace 40 minutos, a las 06:20 UTC
Viento 9 kt del suroeste, variando entre sur y oeste-suroeste
Temperatura 13°C
Humedad 62%
Presión 1005 hPa
Visibilidad 10 km o más
sin nubes por debajo de 1500 m y sin presencia de cumulonimbus.

METAR: EDVK 070620Z 22009KT 190V250 CAVOK 13/06 Q1005

Hora: 09:00 (07:00 UTC)

Pronóstico

El informe se hizo hace 1 hora y 10 minutos, a las 05:50 UTC
Pronóstico válido del 07 a las 06 UTC al 07 a las 15 UTC
Viento 8 kt del sur-suroeste
Visibilidad 10 km o más
sin nubes por debajo de 1500 m y sin presencia de cumulonimbus.
Evolucionando progresivamente
del 07 a las 08 UTC al 07 a las 11 UTC
Viento 10 kt del oeste

TAF: EDVK 070550Z 0706/0715 20008KT CAVOK BECMG 0708/0711 26010KT

Observaciones y pronósticos meteorológicos de más de 4000 aeropuertos (mensajes METAR y TAF).

Los puntos amarillos y rojos representan las estaciones disponibles.

Ponga el ratón en el punto deseado para ver el nombre de la estación.

Haga clic para ver las observaciones y los pronósticos meteorológicos.

Para cambiar el mapa : haga clic en los botones verdes con una cruz de color negro para hacer un zoom, en el botón verde con un guión para alejar o en las flechas verdes para mapas adyacentes.


METAR-TAF: